createdAt,value
2023-04-28T00:00:12.094Z,10.10
2023-04-28T00:02:40.378Z,10.10
2023-04-28T00:05:09.446Z,10.20
2023-04-28T00:07:38.094Z,10.20
2023-04-28T00:10:09.058Z,10.20
2023-04-28T00:12:37.763Z,10.20
2023-04-28T00:15:06.636Z,10.20
2023-04-28T00:17:35.429Z,10.20
2023-04-28T00:20:04.432Z,10.30
2023-04-28T00:22:32.593Z,10.20
2023-04-28T00:25:00.807Z,10.30
2023-04-28T00:27:30.370Z,10.30
2023-04-28T00:29:58.830Z,10.30
2023-04-28T00:32:27.053Z,10.30
2023-04-28T00:34:55.185Z,10.30
2023-04-28T00:37:23.502Z,10.30
2023-04-28T00:39:56.586Z,10.30
2023-04-28T00:42:25.393Z,10.40
2023-04-28T00:44:54.885Z,10.30
2023-04-28T00:47:23.875Z,10.30
2023-04-28T00:49:53.963Z,10.20
2023-04-28T00:52:22.096Z,10.40
2023-04-28T00:54:51.039Z,10.30
2023-04-28T00:57:19.226Z,10.20
2023-04-28T00:59:47.380Z,10.30
2023-04-28T01:02:18.314Z,10.20
2023-04-28T01:04:47.704Z,10.20
2023-04-28T01:07:16.847Z,10.10
2023-04-28T01:09:46.175Z,10.20
2023-04-28T01:12:15.507Z,10.30
2023-04-28T01:14:45.983Z,10.10
2023-04-28T01:17:14.805Z,10.10
2023-04-28T01:19:44.293Z,9.90
2023-04-28T01:22:15.263Z,9.80
2023-04-28T01:24:45.760Z,9.80
2023-04-28T01:27:15.628Z,9.80
2023-04-28T01:29:43.767Z,9.70
2023-04-28T01:32:12.115Z,9.70
2023-04-28T01:34:41.090Z,9.70
2023-04-28T01:37:09.681Z,9.80
2023-04-28T01:39:38.733Z,9.60
2023-04-28T01:42:08.347Z,9.70
2023-04-28T01:44:36.487Z,9.60
2023-04-28T01:47:04.661Z,9.60
2023-04-28T01:49:32.782Z,9.60
2023-04-28T01:52:00.990Z,9.60
2023-04-28T01:54:30.886Z,9.60
2023-04-28T01:56:59.072Z,9.50
2023-04-28T01:59:29.608Z,9.50
2023-04-28T02:01:57.937Z,9.50
2023-04-28T02:04:26.184Z,9.50
2023-04-28T02:06:54.364Z,9.50
2023-04-28T02:09:22.507Z,9.50
2023-04-28T02:12:13.229Z,9.40
2023-04-28T02:14:42.848Z,9.40
2023-04-28T02:17:11.264Z,9.40
2023-04-28T02:19:39.577Z,9.40
2023-04-28T02:22:08.350Z,9.40
2023-04-28T02:24:38.569Z,9.30
2023-04-28T02:27:06.945Z,9.10
2023-04-28T02:29:35.102Z,9.00
2023-04-28T02:32:04.627Z,9.00
2023-04-28T02:34:32.804Z,8.90
2023-04-28T02:37:02.935Z,8.80
2023-04-28T02:39:33.353Z,8.80
2023-04-28T02:42:01.574Z,8.80
2023-04-28T02:44:29.938Z,8.70
2023-04-28T02:46:58.644Z,8.80
2023-04-28T02:49:29.229Z,8.80
2023-04-28T02:51:58.460Z,9.30
2023-04-28T02:54:28.449Z,8.80
2023-04-28T02:56:59.392Z,8.80
2023-04-28T02:59:28.231Z,8.70
2023-04-28T03:01:56.705Z,8.80
2023-04-28T03:04:25.099Z,8.70
2023-04-28T03:06:54.859Z,8.60
2023-04-28T03:09:23.017Z,8.60
2023-04-28T03:11:51.291Z,8.70
2023-04-28T03:14:19.409Z,8.60
2023-04-28T03:16:47.887Z,8.50
2023-04-28T03:19:16.300Z,8.70
2023-04-28T03:21:44.518Z,8.60
2023-04-28T03:24:16.056Z,8.50
2023-04-28T03:26:45.433Z,8.60
2023-04-28T03:29:13.617Z,8.50
2023-04-28T03:31:42.618Z,8.90
2023-04-28T03:34:10.916Z,8.50
2023-04-28T03:36:39.266Z,8.50
2023-04-28T03:39:17.039Z,8.50
2023-04-28T03:41:45.268Z,8.60
2023-04-28T03:44:45.414Z,8.90
2023-04-28T03:47:15.130Z,8.70
2023-04-28T03:49:43.368Z,8.70
2023-04-28T03:52:11.745Z,8.70
2023-04-28T03:54:42.421Z,8.70
2023-04-28T03:57:11.403Z,8.70
2023-04-28T03:59:39.606Z,8.70
2023-04-28T04:02:08.365Z,8.70
2023-04-28T04:04:36.937Z,8.70
2023-04-28T04:07:05.634Z,8.70
2023-04-28T04:09:33.747Z,8.70
2023-04-28T04:12:03.357Z,8.70
2023-04-28T04:14:31.484Z,8.70
2023-04-28T04:16:59.640Z,8.70
2023-04-28T04:19:28.065Z,8.70
2023-04-28T04:21:57.117Z,8.80
2023-04-28T04:24:25.425Z,8.70
2023-04-28T04:26:55.353Z,8.70
2023-04-28T04:29:44.145Z,8.70
2023-04-28T04:32:14.504Z,8.70
2023-04-28T04:34:44.847Z,8.60
2023-04-28T04:37:13.234Z,8.60
2023-04-28T04:39:48.521Z,8.70
2023-04-28T04:42:24.959Z,8.60
2023-04-28T04:45:14.082Z,8.60
2023-04-28T04:47:43.801Z,8.60
2023-04-28T04:50:13.057Z,8.60
2023-04-28T04:52:41.559Z,8.60
2023-04-28T04:55:11.230Z,8.60
2023-04-28T04:57:41.667Z,8.60
2023-04-28T05:00:30.600Z,8.70
2023-04-28T05:03:00.592Z,8.80
2023-04-28T05:05:28.963Z,8.60
2023-04-28T05:08:14.423Z,8.60
2023-04-28T05:10:43.158Z,8.60
2023-04-28T05:13:12.068Z,8.60
2023-04-28T05:15:42.376Z,8.50
2023-04-28T05:18:30.999Z,8.60
2023-04-28T05:20:59.176Z,8.60
2023-04-28T05:23:27.984Z,8.70
2023-04-28T05:25:56.989Z,8.70
2023-04-28T05:28:25.381Z,8.60
2023-04-28T05:30:58.115Z,8.60
2023-04-28T05:33:27.345Z,8.70
2023-04-28T05:35:55.542Z,8.90
2023-04-28T05:38:23.715Z,8.60
2023-04-28T05:40:52.641Z,8.70
2023-04-28T05:43:21.267Z,8.70
2023-04-28T05:45:50.664Z,8.70
2023-04-28T05:48:20.331Z,8.60
2023-04-28T05:50:48.505Z,8.70
2023-04-28T05:53:16.709Z,8.70
2023-04-28T05:55:45.138Z,8.80
2023-04-28T05:58:13.419Z,9.00
2023-04-28T06:00:41.569Z,8.80
2023-04-28T06:03:11.352Z,8.80
2023-04-28T06:05:42.011Z,8.80
2023-04-28T06:08:11.332Z,8.80
2023-04-28T06:10:39.939Z,8.80
2023-04-28T06:13:09.439Z,8.80
2023-04-28T06:15:37.684Z,8.80
2023-04-28T06:18:07.389Z,8.80
2023-04-28T06:20:35.708Z,8.80
2023-04-28T06:23:06.790Z,8.80
2023-04-28T06:25:35.072Z,8.70
2023-04-28T06:28:03.387Z,8.80
2023-04-28T06:30:31.711Z,9.00
2023-04-28T06:32:59.962Z,8.90
2023-04-28T06:35:29.172Z,8.90
2023-04-28T06:37:57.684Z,8.90
2023-04-28T06:40:30.009Z,9.10
2023-04-28T06:42:59.803Z,9.00
2023-04-28T06:45:45.120Z,8.90
2023-04-28T06:48:13.692Z,8.90
2023-04-28T06:50:43.622Z,8.90
2023-04-28T06:53:12.587Z,9.00
2023-04-28T06:55:42.233Z,9.00
2023-04-28T06:58:11.328Z,9.10
2023-04-28T07:00:39.800Z,9.10
2023-04-28T07:03:08.202Z,9.10
2023-04-28T07:05:36.962Z,9.00
2023-04-28T07:08:05.302Z,9.10
2023-04-28T07:10:33.582Z,9.10
2023-04-28T07:13:03.069Z,9.30
2023-04-28T07:15:31.761Z,9.80
2023-04-28T07:18:00.227Z,9.30
2023-04-28T07:20:28.561Z,9.40
2023-04-28T07:22:56.731Z,9.40
2023-04-28T07:25:25.049Z,9.50
2023-04-28T07:27:54.145Z,9.50
2023-04-28T07:30:27.920Z,9.60
2023-04-28T07:32:56.780Z,9.70
2023-04-28T07:35:25.670Z,9.60
2023-04-28T07:37:54.716Z,9.60
2023-04-28T07:40:23.292Z,9.60
2023-04-28T07:42:51.648Z,9.60
2023-04-28T07:45:19.980Z,9.70
2023-04-28T07:47:49.507Z,9.70
2023-04-28T07:50:18.056Z,9.70
2023-04-28T07:52:46.226Z,9.80
2023-04-28T07:55:14.419Z,9.80
2023-04-28T07:57:42.569Z,10.30
2023-04-28T08:00:11.938Z,9.90
2023-04-28T08:02:40.950Z,9.90
2023-04-28T08:05:11.379Z,10.00
2023-04-28T08:07:39.703Z,10.00
2023-04-28T08:10:09.448Z,10.00
2023-04-28T08:12:38.305Z,10.00
2023-04-28T08:15:07.540Z,10.10
2023-04-28T08:17:35.781Z,10.30
2023-04-28T08:20:05.827Z,10.70
2023-04-28T08:22:35.475Z,10.20
2023-04-28T08:25:03.990Z,10.10
2023-04-28T08:27:34.103Z,10.20
2023-04-28T08:30:02.688Z,10.30
2023-04-28T08:32:30.974Z,10.40
2023-04-28T08:35:00.253Z,10.60
2023-04-28T08:37:28.533Z,10.60
2023-04-28T08:40:02.218Z,10.70
2023-04-28T08:42:31.274Z,10.70
2023-04-28T08:45:00.459Z,10.70
2023-04-28T08:47:33.988Z,10.70
2023-04-28T08:50:05.209Z,10.70
2023-04-28T08:52:33.517Z,10.80
2023-04-28T08:55:09.881Z,10.80
2023-04-28T08:57:41.464Z,10.90
2023-04-28T09:00:11.113Z,11.10
2023-04-28T09:02:42.162Z,11.10
2023-04-28T09:05:12.393Z,11.10
2023-04-28T09:07:41.203Z,11.20
2023-04-28T09:10:19.529Z,11.30
2023-04-28T09:12:48.910Z,11.40
2023-04-28T09:15:34.114Z,11.60
2023-04-28T09:18:03.384Z,11.60
2023-04-28T09:20:33.882Z,11.80
2023-04-28T09:23:17.275Z,11.80
2023-04-28T09:26:07.686Z,11.90
2023-04-28T09:28:37.124Z,12.00
2023-04-28T09:31:05.905Z,12.10
2023-04-28T09:33:34.293Z,12.30
2023-04-28T09:36:02.479Z,12.40
2023-04-28T09:38:30.848Z,12.40
2023-04-28T09:41:00.815Z,12.50
2023-04-28T09:43:32.222Z,12.60
2023-04-28T09:46:01.916Z,12.90
2023-04-28T09:48:32.167Z,13.20
2023-04-28T09:51:02.589Z,13.50
2023-04-28T09:53:31.774Z,13.50
2023-04-28T09:56:02.060Z,13.40
2023-04-28T09:58:32.964Z,13.40
2023-04-28T10:01:02.306Z,13.70
2023-04-28T10:03:32.086Z,14.30
2023-04-28T10:06:00.826Z,14.60
2023-04-28T10:08:29.475Z,14.90
2023-04-28T10:10:58.848Z,15.00
2023-04-28T10:13:27.182Z,15.00
2023-04-28T10:15:58.513Z,15.10
2023-04-28T10:18:27.738Z,15.30
2023-04-28T10:20:59.816Z,15.20
2023-04-28T10:23:50.849Z,15.20
2023-04-28T10:26:21.994Z,15.20
2023-04-28T10:28:52.246Z,15.20
2023-04-28T10:31:23.344Z,15.20
2023-04-28T10:33:51.823Z,15.10
2023-04-28T10:36:48.613Z,14.90
2023-04-28T10:39:16.832Z,14.80
2023-04-28T10:41:47.611Z,14.70
2023-04-28T10:44:44.318Z,14.70
2023-04-28T10:47:13.946Z,14.80
2023-04-28T10:50:08.282Z,14.90
2023-04-28T10:52:52.192Z,15.20
2023-04-28T10:55:36.508Z,15.40
2023-04-28T10:58:33.741Z,15.60
2023-04-28T11:01:27.679Z,15.70
2023-04-28T11:04:04.832Z,15.60
2023-04-28T11:06:36.095Z,15.50
2023-04-28T11:09:25.443Z,15.50
2023-04-28T11:12:06.919Z,15.50
2023-04-28T11:14:36.217Z,15.50
2023-04-28T11:17:06.642Z,15.60
2023-04-28T11:19:38.036Z,15.50
2023-04-28T11:22:11.562Z,15.70
2023-04-28T11:24:39.894Z,15.70
2023-04-28T11:27:08.476Z,15.90
2023-04-28T11:29:38.167Z,16.30
2023-04-28T11:32:08.212Z,16.80
2023-04-28T11:34:38.892Z,16.90
2023-04-28T11:37:08.523Z,17.10
2023-04-28T11:39:37.252Z,17.20
2023-04-28T11:42:11.430Z,17.50
2023-04-28T11:44:40.018Z,17.50
2023-04-28T11:47:11.086Z,17.70
2023-04-28T11:49:47.731Z,17.70
2023-04-28T11:52:16.542Z,17.70
2023-04-28T11:54:44.778Z,17.60
2023-04-28T11:57:19.081Z,17.60
2023-04-28T11:59:48.909Z,17.60
2023-04-28T12:02:25.456Z,17.60
2023-04-28T12:04:55.251Z,17.70
2023-04-28T12:07:23.701Z,17.70
2023-04-28T12:10:13.582Z,17.60
2023-04-28T12:12:50.839Z,17.60
2023-04-28T12:15:21.815Z,17.40
2023-04-28T12:17:51.696Z,17.30
2023-04-28T12:20:37.669Z,17.10
2023-04-28T12:23:07.419Z,17.10
2023-04-28T12:25:44.905Z,17.00
2023-04-28T12:28:13.097Z,17.10
2023-04-28T12:30:42.462Z,17.10
2023-04-28T12:33:24.480Z,17.20
2023-04-28T12:35:55.959Z,17.20
2023-04-28T12:38:24.171Z,17.20
2023-04-28T12:40:52.860Z,17.20
2023-04-28T12:43:23.126Z,17.30
2023-04-28T12:45:52.957Z,17.10
2023-04-28T12:48:21.426Z,17.00
2023-04-28T12:50:49.953Z,17.00
2023-04-28T12:53:19.530Z,17.00
2023-04-28T12:55:47.685Z,17.10
2023-04-28T12:58:15.837Z,17.40
2023-04-28T13:00:44.410Z,17.60
2023-04-28T13:03:12.645Z,17.80
2023-04-28T13:05:40.896Z,18.00
2023-04-28T13:08:10.235Z,18.20
2023-04-28T13:10:40.324Z,18.30
2023-04-28T13:13:08.463Z,18.40
2023-04-28T13:15:38.910Z,18.70
2023-04-28T13:18:07.359Z,18.90
2023-04-28T13:20:35.857Z,19.10
2023-04-28T13:23:04.061Z,19.10
2023-04-28T13:25:32.359Z,19.10
2023-04-28T13:28:01.938Z,19.20
2023-04-28T13:30:30.292Z,19.30
2023-04-28T13:32:58.915Z,19.40
2023-04-28T13:35:27.598Z,19.40
2023-04-28T13:38:01.766Z,19.60
2023-04-28T13:40:30.176Z,19.80
2023-04-28T13:42:58.368Z,19.70
2023-04-28T13:45:28.953Z,19.40
2023-04-28T13:47:57.147Z,19.40
2023-04-28T13:50:26.180Z,19.40
2023-04-28T13:52:54.370Z,19.70
2023-04-28T13:55:27.652Z,19.80
2023-04-28T13:57:56.870Z,20.00
2023-04-28T14:00:25.285Z,19.90
2023-04-28T14:02:54.904Z,19.90
2023-04-28T14:05:23.485Z,20.00
2023-04-28T14:07:51.839Z,20.30
2023-04-28T14:10:20.566Z,20.20
2023-04-28T14:12:49.028Z,20.10
2023-04-28T14:15:17.960Z,20.20
2023-04-28T14:17:46.624Z,20.40
2023-04-28T14:20:16.306Z,20.50
2023-04-28T14:22:44.469Z,20.70
2023-04-28T14:25:12.907Z,20.60
2023-04-28T14:27:41.108Z,20.70
2023-04-28T14:30:10.302Z,20.80
2023-04-28T14:32:40.043Z,20.90
2023-04-28T14:35:09.605Z,20.60
2023-04-28T14:37:39.502Z,20.60
2023-04-28T14:40:09.072Z,20.40
2023-04-28T14:42:38.121Z,20.40
2023-04-28T14:45:07.838Z,20.50
2023-04-28T14:47:36.914Z,20.60
2023-04-28T14:50:06.568Z,20.70
2023-04-28T14:52:35.293Z,20.80
2023-04-28T14:55:05.185Z,20.90
2023-04-28T14:57:35.287Z,20.80
2023-04-28T15:00:03.985Z,20.70
2023-04-28T15:02:34.489Z,20.90
2023-04-28T15:05:03.114Z,20.90
2023-04-28T15:07:32.612Z,20.70
2023-04-28T15:10:01.310Z,20.70
2023-04-28T15:12:31.951Z,20.90
2023-04-28T15:15:00.180Z,21.20
2023-04-28T15:17:29.075Z,21.30
2023-04-28T15:19:57.320Z,21.30
2023-04-28T15:22:25.476Z,21.30
2023-04-28T15:24:55.321Z,21.20
2023-04-28T15:27:23.942Z,21.20
2023-04-28T15:29:53.692Z,21.30
2023-04-28T15:32:23.245Z,21.10
2023-04-28T15:34:52.182Z,20.90
2023-04-28T15:37:40.689Z,20.70
2023-04-28T15:40:10.284Z,20.70
2023-04-28T15:42:38.600Z,20.60
2023-04-28T15:45:10.868Z,20.60
2023-04-28T15:47:40.563Z,20.60
2023-04-28T15:50:10.855Z,20.50
2023-04-28T15:52:40.908Z,20.40
2023-04-28T15:55:10.465Z,20.40
2023-04-28T15:57:38.631Z,20.40
2023-04-28T16:00:10.177Z,20.30
2023-04-28T16:02:39.577Z,20.30
2023-04-28T16:05:08.496Z,20.20
2023-04-28T16:07:40.821Z,20.00
2023-04-28T16:10:11.500Z,20.00
2023-04-28T16:12:40.586Z,20.00
2023-04-28T16:15:13.047Z,19.90
2023-04-28T16:17:42.306Z,20.00
2023-04-28T16:20:11.640Z,20.10
2023-04-28T16:22:41.420Z,20.20
2023-04-28T16:25:10.803Z,20.30
2023-04-28T16:27:40.063Z,20.30
2023-04-28T16:30:10.948Z,20.30
2023-04-28T16:32:40.847Z,20.30
2023-04-28T16:35:14.906Z,20.30
2023-04-28T16:37:44.566Z,20.30
2023-04-28T16:40:15.040Z,20.10
2023-04-28T16:42:43.556Z,19.90
2023-04-28T16:45:14.291Z,19.70
2023-04-28T16:47:43.614Z,19.50
2023-04-28T16:50:14.461Z,19.40
2023-04-28T16:52:42.761Z,19.30
2023-04-28T16:55:11.337Z,19.30
2023-04-28T16:57:39.467Z,19.20
2023-04-28T17:00:09.241Z,19.30
2023-04-28T17:02:39.122Z,19.20
2023-04-28T17:05:08.018Z,19.30
2023-04-28T17:07:36.519Z,19.30
2023-04-28T17:10:05.170Z,19.40
2023-04-28T17:12:33.663Z,19.30
2023-04-28T17:15:01.971Z,19.30
2023-04-28T17:17:30.155Z,19.10
2023-04-28T17:20:02.183Z,19.00
2023-04-28T17:22:30.668Z,18.90
2023-04-28T17:24:59.268Z,18.80
2023-04-28T17:27:27.714Z,18.80
2023-04-28T17:29:55.881Z,18.50
2023-04-28T17:32:24.062Z,18.40
2023-04-28T17:34:52.697Z,18.30
2023-04-28T17:37:22.900Z,18.20
2023-04-28T17:39:51.674Z,18.00
2023-04-28T17:42:20.030Z,17.90
2023-04-28T17:44:48.429Z,17.80
2023-04-28T17:47:17.292Z,17.70
2023-04-28T17:49:45.872Z,17.60
2023-04-28T17:52:15.416Z,17.40
2023-04-28T17:54:44.984Z,17.20
2023-04-28T17:57:13.361Z,17.00
2023-04-28T17:59:42.611Z,17.00
2023-04-28T18:02:11.561Z,17.00
2023-04-28T18:04:39.837Z,16.80
2023-04-28T18:07:08.981Z,16.70
2023-04-28T18:09:37.229Z,16.60
2023-04-28T18:12:07.640Z,16.50
2023-04-28T18:14:35.902Z,16.50
2023-04-28T18:17:04.395Z,16.30
2023-04-28T18:19:32.581Z,16.20
2023-04-28T18:22:00.885Z,16.00
2023-04-28T18:24:29.032Z,16.00
2023-04-28T18:26:57.199Z,15.90
2023-04-28T18:29:26.745Z,15.90
2023-04-28T18:31:56.105Z,15.70
2023-04-28T18:34:24.309Z,15.60
2023-04-28T18:36:52.552Z,15.60
2023-04-28T18:39:20.790Z,15.50
2023-04-28T18:41:49.019Z,15.80
2023-04-28T18:44:17.245Z,15.40
2023-04-28T18:46:46.773Z,15.40
2023-04-28T18:49:15.334Z,15.50
2023-04-28T18:51:45.221Z,15.50
2023-04-28T18:54:15.816Z,15.40
2023-04-28T18:56:44.690Z,15.20
2023-04-28T18:59:12.974Z,15.20
2023-04-28T19:01:41.227Z,15.20
2023-04-28T19:04:10.992Z,15.20
2023-04-28T19:06:39.540Z,15.10
2023-04-28T19:09:08.495Z,15.10
2023-04-28T19:11:37.212Z,15.00
2023-04-28T19:14:05.321Z,15.00
2023-04-28T19:16:33.598Z,15.00
2023-04-28T19:19:01.873Z,15.00
2023-04-28T19:21:34.392Z,15.00
2023-04-28T19:24:02.871Z,15.20
2023-04-28T19:26:31.096Z,14.90
2023-04-28T19:28:59.382Z,14.90
2023-04-28T19:31:27.637Z,15.20
2023-04-28T19:33:56.680Z,14.90
2023-04-28T19:36:24.922Z,14.80
2023-04-28T19:38:55.556Z,14.80
2023-04-28T19:41:23.692Z,14.70
2023-04-28T19:43:51.987Z,14.70
2023-04-28T19:46:20.308Z,14.60
2023-04-28T19:48:48.466Z,14.60
2023-04-28T19:51:16.951Z,14.60
2023-04-28T19:53:48.724Z,14.50
2023-04-28T19:56:20.453Z,14.60
2023-04-28T19:58:48.767Z,14.50
2023-04-28T20:01:17.026Z,14.50
2023-04-28T20:03:45.401Z,14.40
2023-04-28T20:06:17.478Z,14.40
2023-04-28T20:08:45.876Z,14.40
2023-04-28T20:11:14.125Z,14.30
2023-04-28T20:13:44.170Z,14.30
2023-04-28T20:16:12.387Z,14.30
2023-04-28T20:18:40.605Z,14.30
2023-04-28T20:21:09.994Z,14.20
2023-04-28T20:23:38.236Z,14.20
2023-04-28T20:26:06.945Z,14.20
2023-04-28T20:28:35.129Z,14.20
2023-04-28T20:31:08.822Z,14.20
2023-04-28T20:33:36.970Z,14.10
2023-04-28T20:36:06.201Z,14.10
2023-04-28T20:38:34.563Z,14.00
2023-04-28T20:41:03.128Z,14.00
2023-04-28T20:43:31.443Z,14.00
2023-04-28T20:45:59.849Z,13.90
2023-04-28T20:48:29.966Z,13.90
2023-04-28T20:50:59.192Z,14.00
2023-04-28T20:53:27.330Z,13.90
2023-04-28T20:55:55.958Z,13.90
2023-04-28T20:58:24.305Z,13.90
2023-04-28T21:00:53.296Z,13.90
2023-04-28T21:03:23.699Z,13.90
2023-04-28T21:05:53.732Z,13.90
2023-04-28T21:08:21.880Z,13.80
2023-04-28T21:10:49.980Z,13.80
2023-04-28T21:13:18.169Z,13.70
2023-04-28T21:15:46.974Z,13.70
2023-04-28T21:18:15.465Z,13.70
2023-04-28T21:20:44.009Z,13.60
2023-04-28T21:23:13.552Z,13.50
2023-04-28T21:25:41.692Z,13.40
2023-04-28T21:28:10.874Z,13.40
2023-04-28T21:30:39.859Z,13.40
2023-04-28T21:33:08.198Z,13.40
2023-04-28T21:35:36.587Z,13.40
2023-04-28T21:38:04.873Z,13.50
2023-04-28T21:40:34.721Z,13.40
2023-04-28T21:43:02.977Z,13.40
2023-04-28T21:45:31.244Z,13.40
2023-04-28T21:48:00.205Z,13.40
2023-04-28T21:50:28.479Z,13.30
2023-04-28T21:52:57.124Z,13.30
2023-04-28T21:55:25.344Z,13.40
2023-04-28T21:57:58.776Z,13.20
2023-04-28T22:00:28.350Z,13.30
2023-04-28T22:02:58.324Z,13.20
2023-04-28T22:05:26.691Z,13.50
2023-04-28T22:07:55.094Z,13.20
2023-04-28T22:10:23.763Z,13.20
2023-04-28T22:12:52.018Z,13.20
2023-04-28T22:15:21.646Z,13.20
2023-04-28T22:17:49.811Z,13.20
2023-04-28T22:20:18.131Z,13.20
2023-04-28T22:22:46.275Z,13.10
2023-04-28T22:25:14.431Z,13.10
2023-04-28T22:27:42.602Z,13.10
2023-04-28T22:30:11.755Z,13.20
2023-04-28T22:32:44.432Z,13.20
2023-04-28T22:35:13.019Z,13.10
2023-04-28T22:37:41.188Z,13.20
2023-04-28T22:40:11.072Z,13.20
2023-04-28T22:42:39.910Z,13.20
2023-04-28T22:45:10.369Z,13.30
2023-04-28T22:47:41.731Z,13.20
2023-04-28T22:50:10.855Z,13.20
2023-04-28T22:52:39.053Z,13.20
2023-04-28T22:55:10.661Z,13.20
2023-04-28T22:57:38.862Z,13.20
2023-04-28T23:00:08.533Z,13.20
2023-04-28T23:02:37.127Z,13.20
2023-04-28T23:05:07.450Z,13.20
2023-04-28T23:07:35.962Z,13.10
2023-04-28T23:10:05.039Z,13.10
2023-04-28T23:12:33.510Z,13.10
2023-04-28T23:15:02.255Z,13.10
2023-04-28T23:17:32.686Z,13.10
2023-04-28T23:20:00.793Z,13.00
2023-04-28T23:22:30.398Z,13.00
2023-04-28T23:24:58.549Z,13.10
2023-04-28T23:27:26.743Z,13.00
2023-04-28T23:29:55.055Z,12.90
2023-04-28T23:32:23.536Z,12.90
2023-04-28T23:34:51.968Z,13.00
2023-04-28T23:37:20.339Z,12.80
2023-04-28T23:39:50.454Z,12.80
2023-04-28T23:42:18.759Z,12.70
2023-04-28T23:44:46.896Z,12.70
2023-04-28T23:47:15.951Z,12.70
2023-04-28T23:49:49.911Z,12.70
2023-04-28T23:52:19.343Z,12.60
2023-04-28T23:54:47.518Z,12.60
2023-04-28T23:57:17.014Z,12.50
2023-04-28T23:59:45.190Z,12.50
